ニアメ の空港の天気 - METARとTAF

ニアメ/ディオリ・アマニ国際空港 ( DRRN / NIM ) - ニジェール ニアメ
飛行場実況気象(Metar)
観測時間08/14 21:00 WAT (08/14 20:00 UTC)
風向・風速南 7m/s 瞬間風速12m/s
視程10km以上
天気現象
少しの雲 雲底高度 300m
少しの雲 雲底高度 610m
気温30℃
湿度66%
気圧1008hPa
METARDRRN 142000Z 18013G23KT 150V210 9999 TS FEW010 FEW020CB 30/23 Q1008 TEMPO 2000 BLDU
過去の天気等 Google飛行場航空写真 Wunderground天気予報

過去48時間のMETAR

飛行場予報(TAF)
発表時間: 8/14 18:00 WAT (8/14 17:00 UTC)
予報対象時間: 14日19時 WAT ~ 16日1時 WAT
風向・風速南西 4m/s
視程10km以上
少しの雲 雲底高度 300m
14日19時 WAT ~ 14日21時 WAT に一時的に
天気現象
全天の4割程度の雲 雲底高度 300m
少しの積乱雲 雲底高度 460m
14日23時 WAT ~ 15日3時 WAT に一時的に
風向・風速東 18m/s
視程2000m
天気現象高い風塵 雷雨
全天の8割程度の積乱雲 雲底高度 430m
TAF DRRN 141700Z 1418/1524 22008KT 9999 FEW010
TEMPO 1418/1420 TS SCT010 FEW015CB
TEMPO 1422/1502 09035KT 2000 BLDU TSRA BKN014CB